createdAt,value
2022-12-03T00:01:58.588Z,30.25
2022-12-03T00:05:02.034Z,29.77
2022-12-03T00:08:05.480Z,27.35
2022-12-03T00:11:08.725Z,29.45
2022-12-03T00:14:11.668Z,27.20
2022-12-03T00:17:14.956Z,28.10
2022-12-03T00:20:23.314Z,28.38
2022-12-03T00:23:26.584Z,33.22
2022-12-03T00:26:29.604Z,28.25
2022-12-03T00:29:33.427Z,29.27
2022-12-03T00:32:36.579Z,26.33
2022-12-03T00:35:39.834Z,26.10
2022-12-03T00:38:42.964Z,25.48
2022-12-03T00:41:46.155Z,35.67
2022-12-03T00:44:49.143Z,32.75
2022-12-03T00:47:53.637Z,27.60
2022-12-03T00:50:56.478Z,29.17
2022-12-03T00:54:00.785Z,30.50
2022-12-03T00:57:04.710Z,30.40
2022-12-03T01:00:09.235Z,31.27
2022-12-03T01:03:12.998Z,32.42
2022-12-03T01:06:16.484Z,31.67
2022-12-03T01:09:19.618Z,30.70
2022-12-03T01:12:22.777Z,29.33
2022-12-03T01:15:25.727Z,32.75
2022-12-03T01:18:29.029Z,31.42
2022-12-03T01:21:31.868Z,29.83
2022-12-03T01:24:35.306Z,28.12
2022-12-03T01:27:38.165Z,32.30
2022-12-03T01:31:02.051Z,33.30
2022-12-03T01:34:05.551Z,29.12
2022-12-03T01:37:08.760Z,29.12
2022-12-03T01:40:13.202Z,26.62
2022-12-03T01:43:17.175Z,26.83
2022-12-03T01:46:22.773Z,25.20
2022-12-03T01:49:33.866Z,25.92
2022-12-03T01:52:38.921Z,24.83
2022-12-03T01:58:51.455Z,25.12
2022-12-03T02:01:57.019Z,22.60
2022-12-03T02:05:01.127Z,24.17
2022-12-03T02:08:34.807Z,24.10
2022-12-03T02:11:47.015Z,24.80
2022-12-03T02:14:50.554Z,27.10
2022-12-03T02:17:53.706Z,26.25
2022-12-03T02:21:06.293Z,23.92
2022-12-03T02:24:17.293Z,26.45
2022-12-03T02:27:22.684Z,26.17
2022-12-03T02:33:32.496Z,23.08
2022-12-03T02:36:36.576Z,27.33
2022-12-03T02:39:41.806Z,25.52
2022-12-03T02:42:46.467Z,22.77
2022-12-03T02:45:53.080Z,25.25
2022-12-03T02:48:56.026Z,27.42
2022-12-03T02:51:59.610Z,26.42
2022-12-03T02:55:04.547Z,27.08
2022-12-03T03:01:11.717Z,29.90
2022-12-03T03:04:15.346Z,27.98
2022-12-03T03:07:18.436Z,31.12
2022-12-03T03:10:23.625Z,29.63
2022-12-03T03:13:26.636Z,28.12
2022-12-03T03:16:29.952Z,31.05
2022-12-03T03:19:33.119Z,30.75
2022-12-03T03:22:41.116Z,31.33
2022-12-03T03:25:50.215Z,34.75
2022-12-03T03:28:54.208Z,29.95
2022-12-03T03:31:57.992Z,30.30
2022-12-03T03:35:01.292Z,34.53
2022-12-03T03:38:04.785Z,31.70
2022-12-03T03:41:09.373Z,33.83
2022-12-03T03:44:12.263Z,31.42
2022-12-03T03:47:18.763Z,35.65
2022-12-03T03:50:22.120Z,35.95
2022-12-03T03:53:25.400Z,35.20
2022-12-03T03:56:28.335Z,34.55
2022-12-03T03:59:31.561Z,32.45
2022-12-03T04:02:34.835Z,31.50
2022-12-03T04:05:38.773Z,34.35
2022-12-03T04:08:41.455Z,31.27
2022-12-03T04:12:02.911Z,37.03
2022-12-03T04:15:08.136Z,33.05
2022-12-03T04:22:24.312Z,34.30
2022-12-03T04:25:46.428Z,34.42
2022-12-03T04:28:49.392Z,36.45
2022-12-03T04:32:11.911Z,36.67
2022-12-03T04:35:33.373Z,39.30
2022-12-03T04:38:37.580Z,37.88
2022-12-03T04:41:40.542Z,34.67
2022-12-03T04:44:45.412Z,33.05
2022-12-03T04:47:48.705Z,41.17
2022-12-03T04:50:52.162Z,32.65
2022-12-03T04:53:55.144Z,38.92
2022-12-03T04:56:58.452Z,36.30
2022-12-03T05:00:04.045Z,39.30
2022-12-03T05:03:08.889Z,39.42
2022-12-03T05:06:11.735Z,33.03
2022-12-03T05:09:16.125Z,35.67
2022-12-03T05:12:19.553Z,35.63
2022-12-03T05:15:23.240Z,32.00
2022-12-03T05:18:26.316Z,36.65
2022-12-03T05:21:29.675Z,34.35
2022-12-03T05:24:32.703Z,41.17
2022-12-03T05:27:35.867Z,36.33
2022-12-03T05:30:38.973Z,32.92
2022-12-03T05:33:44.564Z,42.95
2022-12-03T05:36:47.610Z,35.35
2022-12-03T05:39:50.847Z,37.10
2022-12-03T05:42:53.760Z,39.08
2022-12-03T05:45:57.072Z,39.85
2022-12-03T05:48:59.989Z,37.47
2022-12-03T05:52:03.935Z,42.88
2022-12-03T05:55:07.871Z,36.20
2022-12-03T05:58:11.824Z,40.53
2022-12-03T06:01:14.741Z,38.03
2022-12-03T06:04:17.930Z,41.17
2022-12-03T06:07:20.830Z,43.05
2022-12-03T06:10:25.185Z,38.30
2022-12-03T06:13:28.741Z,34.55
2022-12-03T06:16:32.067Z,39.53
2022-12-03T06:19:36.444Z,36.00
2022-12-03T06:22:39.737Z,38.10
2022-12-03T06:25:42.710Z,36.95
2022-12-03T06:28:47.781Z,34.00
2022-12-03T06:31:50.673Z,35.63
2022-12-03T06:34:55.029Z,39.45
2022-12-03T06:37:58.225Z,36.53
2022-12-03T06:41:03.390Z,34.75
2022-12-03T06:44:06.579Z,37.25
2022-12-03T06:47:10.122Z,32.10
2022-12-03T06:50:14.001Z,37.58
2022-12-03T06:53:17.428Z,34.08
2022-12-03T06:56:22.408Z,38.80
2022-12-03T06:59:25.935Z,38.72
2022-12-03T07:02:28.991Z,38.67
2022-12-03T07:05:34.868Z,33.78
2022-12-03T07:08:38.067Z,37.38
2022-12-03T07:11:41.346Z,35.35
2022-12-03T07:14:44.259Z,33.10
2022-12-03T07:17:47.592Z,30.62
2022-12-03T07:20:51.374Z,29.25
2022-12-03T07:23:55.908Z,31.83
2022-12-03T07:27:00.282Z,34.80
2022-12-03T07:30:05.909Z,33.10
2022-12-03T07:33:09.121Z,30.35
2022-12-03T07:36:13.165Z,36.20
2022-12-03T07:39:16.509Z,31.48
2022-12-03T07:42:20.064Z,32.35
2022-12-03T07:45:26.293Z,31.85
2022-12-03T07:48:29.624Z,37.40
2022-12-03T07:51:32.622Z,31.00
2022-12-03T07:54:39.685Z,29.35
2022-12-03T07:57:42.749Z,33.60
2022-12-03T08:00:46.077Z,32.67
2022-12-03T08:03:49.679Z,30.33
2022-12-03T08:06:52.768Z,27.27
2022-12-03T08:09:56.472Z,36.45
2022-12-03T08:13:00.216Z,31.98
2022-12-03T08:16:14.749Z,32.58
2022-12-03T08:19:19.611Z,36.40
2022-12-03T08:22:24.986Z,32.53
2022-12-03T08:25:30.417Z,36.25
2022-12-03T08:28:34.172Z,36.15
2022-12-03T08:31:37.279Z,30.00
2022-12-03T08:34:43.600Z,31.62
2022-12-03T08:37:46.483Z,34.92
2022-12-03T08:40:51.997Z,34.30
2022-12-03T08:43:55.118Z,36.45
2022-12-03T08:47:18.556Z,31.30
2022-12-03T08:50:36.693Z,30.27
2022-12-03T08:53:50.026Z,31.95
2022-12-03T08:56:53.037Z,33.67
2022-12-03T09:00:22.303Z,30.48
2022-12-03T09:03:30.440Z,33.17
2022-12-03T09:06:34.938Z,30.75
2022-12-03T09:10:05.857Z,35.25
2022-12-03T09:13:14.428Z,36.33
2022-12-03T09:16:19.020Z,32.33
2022-12-03T09:19:25.662Z,30.33
2022-12-03T09:22:31.288Z,27.52
2022-12-03T09:25:35.904Z,33.40
2022-12-03T09:28:42.494Z,30.88
2022-12-03T09:31:47.179Z,29.10
2022-12-03T09:34:50.191Z,32.70
2022-12-03T09:37:54.620Z,34.33
2022-12-03T09:40:57.594Z,32.17
2022-12-03T09:44:04.867Z,30.33
2022-12-03T09:47:13.471Z,31.55
2022-12-03T09:50:26.603Z,27.17
2022-12-03T09:53:30.507Z,28.62
2022-12-03T09:56:36.741Z,31.33
2022-12-03T09:59:39.881Z,27.05
2022-12-03T10:02:44.072Z,28.62
2022-12-03T10:05:49.158Z,32.80
2022-12-03T10:08:55.197Z,29.77
2022-12-03T10:12:09.771Z,28.80
2022-12-03T10:15:16.777Z,27.45
2022-12-03T10:18:22.614Z,29.40
2022-12-03T10:21:41.631Z,27.37
2022-12-03T10:24:45.238Z,26.30
2022-12-03T10:27:57.904Z,22.65
2022-12-03T10:31:05.237Z,27.77
2022-12-03T10:34:11.017Z,18.45
2022-12-03T10:37:20.084Z,21.90
2022-12-03T10:40:36.952Z,21.95
2022-12-03T10:43:46.396Z,21.02
2022-12-03T10:47:14.635Z,24.73
2022-12-03T10:50:20.272Z,24.12
2022-12-03T10:53:27.901Z,23.77
2022-12-03T10:56:31.322Z,30.37
2022-12-03T10:59:35.490Z,24.42
2022-12-03T11:02:39.043Z,26.52
2022-12-03T11:05:42.189Z,24.33
2022-12-03T11:08:56.282Z,26.83
2022-12-03T11:12:08.277Z,25.15
2022-12-03T11:19:37.021Z,24.27
2022-12-03T11:22:42.746Z,26.45
2022-12-03T11:28:53.401Z,26.42
2022-12-03T11:31:56.662Z,25.25
2022-12-03T11:35:01.629Z,24.25
2022-12-03T11:38:47.404Z,29.00
2022-12-03T11:42:28.617Z,24.98
2022-12-03T11:45:33.144Z,27.27
2022-12-03T11:48:44.112Z,31.02
2022-12-03T11:51:52.511Z,28.42
2022-12-03T11:55:04.492Z,28.23
2022-12-03T11:58:25.730Z,28.25
2022-12-03T12:01:38.765Z,26.62
2022-12-03T12:04:46.953Z,27.05
2022-12-03T12:07:50.582Z,28.00
2022-12-03T12:10:53.782Z,29.75
2022-12-03T12:14:02.162Z,32.83
2022-12-03T12:17:29.377Z,25.12
2022-12-03T12:20:32.385Z,29.83
2022-12-03T12:23:36.158Z,32.92
2022-12-03T12:26:39.326Z,31.25
2022-12-03T12:29:46.011Z,28.48
2022-12-03T12:32:50.241Z,25.92
2022-12-03T12:35:54.248Z,27.45
2022-12-03T12:39:00.083Z,26.67
2022-12-03T12:42:13.818Z,27.83
2022-12-03T12:45:20.584Z,27.92
2022-12-03T12:48:32.579Z,26.73
2022-12-03T12:51:47.776Z,25.75
2022-12-03T12:54:50.992Z,27.13
2022-12-03T12:57:56.541Z,27.58
2022-12-03T13:01:02.781Z,24.77
2022-12-03T13:04:20.268Z,31.17
2022-12-03T13:07:23.679Z,26.92
2022-12-03T13:10:38.104Z,23.48
2022-12-03T13:13:44.277Z,26.83
2022-12-03T13:16:55.884Z,24.50
2022-12-03T13:20:07.186Z,22.98
2022-12-03T13:23:40.364Z,24.48
2022-12-03T13:26:43.771Z,24.98
2022-12-03T13:29:48.198Z,26.87
2022-12-03T13:32:51.821Z,24.52
2022-12-03T13:35:58.780Z,22.37
2022-12-03T13:39:06.069Z,23.98
2022-12-03T13:42:35.497Z,24.70
2022-12-03T13:45:39.527Z,22.10
2022-12-03T13:48:43.355Z,28.20
2022-12-03T13:51:47.481Z,24.20
2022-12-03T13:54:52.815Z,19.62
2022-12-03T13:57:58.174Z,22.80
2022-12-03T14:01:01.125Z,21.70
2022-12-03T14:04:05.040Z,22.65
2022-12-03T14:07:08.749Z,20.05
2022-12-03T14:10:13.993Z,30.35
2022-12-03T14:13:17.645Z,27.23
2022-12-03T14:16:22.006Z,18.60
2022-12-03T14:19:24.944Z,22.13
2022-12-03T14:22:28.615Z,25.73
2022-12-03T14:25:31.636Z,22.02
2022-12-03T14:28:34.905Z,20.05
2022-12-03T14:31:37.840Z,19.62
2022-12-03T14:34:41.029Z,22.52
2022-12-03T14:37:44.268Z,20.48
2022-12-03T14:40:47.361Z,18.98
2022-12-03T14:43:50.246Z,22.27
2022-12-03T14:46:57.056Z,23.42
2022-12-03T14:50:00.592Z,19.45
2022-12-03T14:53:03.789Z,15.95
2022-12-03T14:56:08.015Z,20.58
2022-12-03T14:59:11.440Z,16.57
2022-12-03T15:02:14.597Z,21.80
2022-12-03T15:05:20.031Z,24.35
2022-12-03T15:08:25.746Z,18.25
2022-12-03T15:11:28.905Z,14.93
2022-12-03T15:14:31.799Z,18.52
2022-12-03T15:17:35.066Z,18.20
2022-12-03T15:20:39.196Z,14.30
2022-12-03T15:23:42.592Z,14.43
2022-12-03T15:26:45.451Z,17.37
2022-12-03T15:29:48.739Z,16.17
2022-12-03T15:32:51.622Z,30.95
2022-12-03T15:35:54.776Z,17.83
2022-12-03T15:38:58.499Z,31.25
2022-12-03T15:42:01.995Z,31.50
2022-12-03T15:45:09.583Z,39.70
2022-12-03T15:48:22.050Z,18.83
2022-12-03T15:51:25.410Z,22.58
2022-12-03T15:54:28.685Z,25.77
2022-12-03T15:57:31.683Z,17.92
2022-12-03T16:00:35.731Z,19.27
2022-12-03T16:03:40.582Z,24.63
2022-12-03T16:06:44.294Z,15.77
2022-12-03T16:09:48.365Z,22.77
2022-12-03T16:12:51.559Z,23.15
2022-12-03T16:15:56.001Z,19.05
2022-12-03T16:18:59.211Z,23.80
2022-12-03T16:22:02.707Z,17.05
2022-12-03T16:25:07.309Z,16.73
2022-12-03T16:28:10.639Z,23.50
2022-12-03T16:31:14.310Z,23.48
2022-12-03T16:34:18.063Z,15.85
2022-12-03T16:37:21.167Z,15.63
2022-12-03T16:40:24.686Z,15.07
2022-12-03T16:43:29.135Z,19.17
2022-12-03T16:46:33.240Z,17.58
2022-12-03T16:49:36.173Z,16.42
2022-12-03T16:52:39.904Z,17.37
2022-12-03T16:55:43.275Z,22.85
2022-12-03T16:58:47.256Z,18.98
2022-12-03T17:01:50.807Z,14.63
2022-12-03T17:04:54.729Z,17.87
2022-12-03T17:07:58.556Z,17.55
2022-12-03T17:11:01.869Z,16.85
2022-12-03T17:14:05.306Z,19.62
2022-12-03T17:17:08.799Z,24.85
2022-12-03T17:20:14.801Z,20.12
2022-12-03T17:23:18.886Z,15.07
2022-12-03T17:26:22.154Z,16.33
2022-12-03T17:29:26.123Z,18.25
2022-12-03T17:32:29.501Z,12.43
2022-12-03T17:35:33.134Z,16.77
2022-12-03T17:38:39.278Z,15.05
2022-12-03T17:41:42.951Z,14.95
2022-12-03T17:44:46.181Z,14.90
2022-12-03T17:47:50.377Z,15.52
2022-12-03T17:50:55.471Z,14.43
2022-12-03T17:57:03.282Z,17.27
2022-12-03T18:00:07.288Z,13.57
2022-12-03T18:03:15.085Z,14.55
2022-12-03T18:06:19.597Z,17.27
2022-12-03T18:09:23.054Z,16.25
2022-12-03T18:12:26.429Z,15.88
2022-12-03T18:15:30.153Z,13.90
2022-12-03T18:18:34.489Z,14.57
2022-12-03T18:21:37.870Z,18.20
2022-12-03T18:24:46.236Z,14.57
2022-12-03T18:27:51.395Z,16.20
2022-12-03T18:30:54.845Z,18.05
2022-12-03T18:33:57.872Z,21.35
2022-12-03T18:37:01.506Z,16.00
2022-12-03T18:40:12.666Z,15.80
2022-12-03T18:43:17.624Z,17.00
2022-12-03T18:49:45.699Z,14.48
2022-12-03T18:52:48.540Z,16.98
2022-12-03T18:55:51.952Z,18.70
2022-12-03T18:58:56.736Z,17.08
2022-12-03T19:02:01.602Z,16.73
2022-12-03T19:05:05.258Z,14.10
2022-12-03T19:08:14.938Z,18.50
2022-12-03T19:11:18.778Z,17.20
2022-12-03T19:14:23.449Z,18.42
2022-12-03T19:17:27.766Z,19.70
2022-12-03T19:20:31.761Z,25.73
2022-12-03T19:23:36.299Z,19.20
2022-12-03T19:26:39.906Z,18.63
2022-12-03T19:29:43.009Z,18.67
2022-12-03T19:32:49.333Z,17.55
2022-12-03T19:38:58.284Z,16.98
2022-12-03T19:42:02.001Z,19.62
2022-12-03T19:45:06.234Z,18.42
2022-12-03T19:48:10.242Z,20.08
2022-12-03T19:51:33.462Z,21.67
2022-12-03T19:54:37.160Z,22.13
2022-12-03T19:57:41.148Z,20.15
2022-12-03T20:00:44.441Z,20.48
2022-12-03T20:03:50.008Z,18.48
2022-12-03T20:06:53.835Z,20.05
2022-12-03T20:09:57.567Z,20.58
2022-12-03T20:13:01.602Z,20.10
2022-12-03T20:16:13.963Z,20.00
2022-12-03T20:19:18.289Z,22.85
2022-12-03T20:22:22.180Z,21.53
2022-12-03T20:25:25.309Z,22.37
2022-12-03T20:28:29.339Z,24.12
2022-12-03T20:31:33.757Z,23.17
2022-12-03T20:34:38.380Z,25.67
2022-12-03T20:37:41.375Z,22.52
2022-12-03T20:40:46.035Z,28.02
2022-12-03T20:43:50.391Z,26.52
2022-12-03T20:46:53.751Z,28.73
2022-12-03T20:49:58.041Z,28.65
2022-12-03T20:53:23.124Z,24.65
2022-12-03T20:56:33.877Z,27.75
2022-12-03T20:59:37.646Z,24.80
2022-12-03T21:02:40.977Z,28.40
2022-12-03T21:05:44.529Z,31.10
2022-12-03T21:08:48.918Z,25.23
2022-12-03T21:11:52.230Z,27.75
2022-12-03T21:14:55.484Z,31.27
2022-12-03T21:17:58.957Z,30.17
2022-12-03T21:21:03.292Z,29.60
2022-12-03T21:24:06.866Z,33.08
2022-12-03T21:27:10.214Z,32.80
2022-12-03T21:30:14.191Z,30.98
2022-12-03T21:33:17.516Z,31.58
2022-12-03T21:36:20.946Z,33.25
2022-12-03T21:39:24.644Z,31.42
2022-12-03T21:42:35.435Z,33.75
2022-12-03T21:45:40.983Z,31.77
2022-12-03T21:48:45.312Z,30.40
2022-12-03T21:51:48.869Z,32.53
2022-12-03T21:54:52.965Z,33.28
2022-12-03T21:57:55.955Z,34.65
2022-12-03T22:01:04.389Z,36.00
2022-12-03T22:04:07.815Z,35.20
2022-12-03T22:07:12.068Z,28.77
2022-12-03T22:10:15.670Z,32.50
2022-12-03T22:13:19.031Z,29.27
2022-12-03T22:16:22.336Z,31.40
2022-12-03T22:19:27.210Z,29.95
2022-12-03T22:22:30.467Z,33.10
2022-12-03T22:25:33.540Z,28.75
2022-12-03T22:28:36.688Z,27.15
2022-12-03T22:31:39.610Z,28.25
2022-12-03T22:34:43.111Z,28.60
2022-12-03T22:37:46.010Z,31.05
2022-12-03T22:40:49.313Z,31.17
2022-12-03T22:43:52.258Z,32.10
2022-12-03T22:46:55.504Z,31.77
2022-12-03T22:50:00.028Z,32.88
2022-12-03T22:53:03.395Z,29.05
2022-12-03T22:56:07.155Z,33.28
2022-12-03T22:59:10.282Z,36.78
2022-12-03T23:02:14.963Z,31.65
2022-12-03T23:05:18.160Z,32.28
2022-12-03T23:08:21.797Z,34.88
2022-12-03T23:11:25.818Z,30.40
2022-12-03T23:14:28.705Z,34.85
2022-12-03T23:17:33.091Z,31.67
2022-12-03T23:20:41.921Z,32.15
2022-12-03T23:23:45.229Z,31.33
2022-12-03T23:26:48.673Z,32.13
2022-12-03T23:29:51.940Z,34.35
2022-12-03T23:32:55.410Z,31.23
2022-12-03T23:35:59.019Z,33.13
2022-12-03T23:39:02.222Z,33.88
2022-12-03T23:42:05.489Z,32.03
2022-12-03T23:45:10.278Z,34.22
2022-12-03T23:48:13.444Z,36.03
2022-12-03T23:51:19.790Z,36.17
2022-12-03T23:54:23.375Z,34.30
2022-12-03T23:57:26.247Z,30.10
